Time;durP1;ratioP1;P1;durP2;ratioP2;P2;SDS_P1;SDS_P2;PMS_P1;PMS_P2;Temp;Humidity;BMP_temperature;BMP_pressure;BME280_temperature;BME280_humidity;BME280_pressure;Samples;Min_cycle;Max_cycle;Signal;HPM_P1;HPM_P2
2024/01/28 00:01:36;;;;;;;19.73;7.22;;;;;;;-0.86;100.00;100537.81;5097260;28;20019;-77
2024/01/28 00:04:01;;;;;;;14.63;6.97;;;;;;;-0.95;100.00;100517.91;5098752;28;20265;-77
2024/01/28 00:06:27;;;;;;;15.90;6.28;;;;;;;-1.06;100.00;100519.50;5084535;28;20078;-78
2024/01/28 00:08:52;;;;;;;18.73;6.32;;;;;;;-1.00;100.00;100525.28;5083298;28;20238;-77
2024/01/28 00:11:17;;;;;;;15.98;6.25;;;;;;;-0.99;100.00;100536.81;5080970;28;20020;-77
2024/01/28 00:13:43;;;;;;;16.67;6.30;;;;;;;-1.21;100.00;100506.13;5082096;28;20020;-77
2024/01/28 00:16:19;;;;;;;13.65;6.53;;;;;;;-1.08;100.00;100526.69;5086364;28;20065;-77
2024/01/28 00:18:45;;;;;;;22.52;7.30;;;;;;;-1.27;100.00;100506.47;5074551;28;20047;-77
2024/01/28 00:21:10;;;;;;;11.88;5.95;;;;;;;-1.39;100.00;100507.16;5079836;28;20319;-77
2024/01/28 00:23:36;;;;;;;12.70;5.90;;;;;;;-1.35;100.00;100511.34;5083904;28;20023;-77
2024/01/28 00:26:02;;;;;;;15.52;5.72;;;;;;;-1.27;100.00;100525.06;5085844;28;20015;-77
2024/01/28 00:28:28;;;;;;;13.43;5.97;;;;;;;-1.45;100.00;100500.38;5080159;28;20061;-77
2024/01/28 00:30:53;;;;;;;17.23;6.13;;;;;;;-1.48;100.00;100491.75;5085387;28;20094;-77
2024/01/28 00:33:19;;;;;;;15.38;6.28;;;;;;;-1.33;100.00;100522.75;5102273;28;20059;-77
2024/01/28 00:35:44;;;;;;;15.95;6.18;;;;;;;-1.39;100.00;100515.13;5097793;28;20038;-77
2024/01/28 00:38:10;;;;;;;16.13;5.38;;;;;;;-1.39;100.00;100523.97;5100751;28;20020;-77
2024/01/28 00:40:35;;;;;;;13.38;4.97;;;;;;;-1.55;100.00;100497.41;5078827;28;20023;-78
2024/01/28 00:43:02;;;;;;;13.40;5.50;;;;;;;-1.51;100.00;100506.03;5084192;28;20016;-77
2024/01/28 00:45:27;;;;;;;15.45;5.22;;;;;;;-1.61;100.00;100486.25;5097858;28;20086;-77
2024/01/28 00:47:53;;;;;;;14.27;4.78;;;;;;;-1.63;100.00;100478.38;5094454;28;20324;-77
2024/01/28 00:50:21;;;;;;;9.32;4.00;;;;;;;-1.50;100.00;100491.81;5077124;28;20044;-77
2024/01/28 00:52:47;;;;;;;10.30;4.35;;;;;;;-1.44;100.00;100493.28;5100382;28;20032;-77
2024/01/28 00:55:14;;;;;;;7.40;3.63;;;;;;;-1.51;100.00;100481.31;5075944;28;20085;-77
2024/01/28 00:57:41;;;;;;;7.13;3.55;;;;;;;-1.51;100.00;100482.16;5101584;28;20079;-77
2024/01/28 01:00:07;;;;;;;9.48;4.00;;;;;;;-1.57;100.00;100466.59;5102648;28;20020;-77
2024/01/28 01:02:32;;;;;;;10.63;4.32;;;;;;;-1.41;100.00;100487.81;5102687;28;20396;-77
2024/01/28 01:04:59;;;;;;;13.25;5.65;;;;;;;-1.47;100.00;100467.75;5094905;28;20023;-77
2024/01/28 01:07:28;;;;;;;14.70;6.07;;;;;;;-1.40;100.00;100466.47;5098555;28;20024;-77
2024/01/28 01:09:53;;;;;;;10.73;4.60;;;;;;;-1.47;100.00;100459.78;5102103;28;20016;-77
2024/01/28 01:12:19;;;;;;;13.57;5.45;;;;;;;-1.74;100.00;100443.63;5096673;28;20095;-77
2024/01/28 01:14:44;;;;;;;17.73;6.03;;;;;;;-1.70;100.00;100452.25;5082507;28;20013;-77
2024/01/28 01:17:09;;;;;;;17.52;5.80;;;;;;;-1.80;100.00;100441.31;5098175;28;20334;-77
2024/01/28 01:19:34;;;;;;;14.82;6.53;;;;;;;-1.92;100.00;100448.13;5080343;28;20104;-78
2024/01/28 01:22:02;;;;;;;15.15;7.43;;;;;;;-1.93;100.00;100453.53;5101409;28;20083;-78
2024/01/28 01:24:27;;;;;;;24.92;8.45;;;;;;;-2.01;100.00;100453.94;5094705;28;20043;-77
2024/01/28 01:26:53;;;;;;;23.75;8.88;;;;;;;-1.89;100.00;100465.69;5093714;28;20047;-77
2024/01/28 01:29:18;;;;;;;29.88;8.50;;;;;;;-1.91;100.00;100465.78;5099810;28;20342;-77
2024/01/28 01:31:45;;;;;;;19.20;7.38;;;;;;;-2.04;100.00;100470.03;5097566;28;20328;-77
2024/01/28 01:34:11;;;;;;;20.95;6.68;;;;;;;-2.03;100.00;100456.66;5083982;28;20315;-78
2024/01/28 01:36:39;;;;;;;17.15;6.05;;;;;;;-2.18;100.00;100448.69;5081794;28;20049;-79
2024/01/28 01:39:05;;;;;;;16.83;7.10;;;;;;;-1.99;100.00;100479.44;5104452;28;20043;-77
2024/01/28 01:41:31;;;;;;;14.77;6.93;;;;;;;-2.34;100.00;100444.19;5100457;28;20031;-77
2024/01/28 01:43:59;;;;;;;19.60;7.95;;;;;;;-2.34;100.00;100449.50;5102151;28;20086;-77
2024/01/28 01:49:10;;;;;;;15.38;6.95;;;;;;;-2.24;100.00;100481.69;5152026;22;20084;-58
2024/01/28 01:51:36;;;;;;;18.35;7.45;;;;;;;-2.05;100.00;100482.41;5088542;28;20028;-58
2024/01/28 01:54:02;;;;;;;18.10;7.35;;;;;;;-2.01;100.00;100476.00;5089201;28;20040;-58
2024/01/28 01:56:33;;;;;;;17.13;6.97;;;;;;;-2.00;100.00;100479.53;5059462;28;20028;-58
2024/01/28 01:58:58;;;;;;;13.40;6.65;;;;;;;-2.00;100.00;100474.22;5074946;28;20037;-58
2024/01/28 02:01:24;;;;;;;13.15;6.13;;;;;;;-1.99;100.00;100471.50;5080238;28;20185;-58
2024/01/28 02:03:51;;;;;;;19.02;7.07;;;;;;;-1.94;100.00;100478.34;5079517;28;20040;-58
2024/01/28 02:06:17;;;;;;;21.27;7.55;;;;;;;-1.92;100.00;100476.47;5075127;28;20406;-58
2024/01/28 02:08:42;;;;;;;20.13;8.38;;;;;;;-1.88;100.00;100480.66;5067294;28;20029;-59
2024/01/28 02:11:08;;;;;;;23.58;8.57;;;;;;;-1.93;100.00;100475.59;5075134;28;20082;-58
2024/01/28 02:13:34;;;;;;;21.08;8.65;;;;;;;-1.99;100.00;100471.50;5077805;28;20028;-58
2024/01/28 02:15:59;;;;;;;16.58;8.15;;;;;;;-2.03;100.00;100471.72;5076124;28;20122;-58
2024/01/28 02:18:26;;;;;;;30.25;8.15;;;;;;;-1.98;100.00;100472.34;5071290;28;20027;-55
2024/01/28 02:20:51;;;;;;;20.83;8.18;;;;;;;-1.99;100.00;100460.88;5074123;28;20032;-55
2024/01/28 02:23:23;;;;;;;16.27;8.40;;;;;;;-2.02;100.00;100461.06;5069881;28;20090;-55
2024/01/28 02:25:49;;;;;;;20.42;7.80;;;;;;;-2.06;100.00;100467.44;5072329;28;20060;-56
2024/01/28 02:28:15;;;;;;;21.02;8.25;;;;;;;-2.16;100.00;100452.97;5072109;28;20059;-56
2024/01/28 02:30:41;;;;;;;18.92;7.40;;;;;;;-2.13;100.00;100471.34;5076677;28;20063;-55
2024/01/28 02:33:06;;;;;;;21.38;8.35;;;;;;;-2.15;100.00;100454.66;5072047;28;20436;-55
2024/01/28 02:35:32;;;;;;;20.92;7.88;;;;;;;-2.16;100.00;100458.28;5076641;28;20036;-55
2024/01/28 02:37:57;;;;;;;16.83;7.60;;;;;;;-2.20;100.00;100454.09;5060781;28;20036;-55
2024/01/28 02:40:23;;;;;;;17.67;7.57;;;;;;;-2.21;100.00;100461.16;5080915;28;20107;-55
2024/01/28 02:42:48;;;;;;;19.88;7.43;;;;;;;-2.22;100.00;100461.25;5082706;28;20048;-55
2024/01/28 02:45:14;;;;;;;20.42;7.40;;;;;;;-2.22;100.00;100454.16;5068685;28;20089;-55
2024/01/28 02:47:39;;;;;;;17.90;7.03;;;;;;;-2.18;100.00;100456.63;5076077;28;20040;-55
2024/01/28 02:50:05;;;;;;;16.42;6.97;;;;;;;-2.24;100.00;100450.72;5089451;28;20020;-56
2024/01/28 02:52:30;;;;;;;15.52;6.93;;;;;;;-2.24;100.00;100452.53;5059639;28;20050;-55
2024/01/28 02:54:56;;;;;;;15.95;7.07;;;;;;;-2.30;100.00;100453.72;5086165;28;20115;-59
2024/01/28 02:57:22;;;;;;;18.27;7.28;;;;;;;-2.36;100.00;100446.06;5077464;28;20119;-55
2024/01/28 02:59:47;;;;;;;15.88;6.50;;;;;;;-2.44;100.00;100437.66;5085236;28;20103;-55
2024/01/28 03:02:13;;;;;;;17.08;6.75;;;;;;;-2.38;100.00;100442.66;5078899;28;20021;-55
2024/01/28 03:04:38;;;;;;;18.38;7.50;;;;;;;-2.34;100.00;100435.38;5084125;28;20070;-55
2024/01/28 03:07:04;;;;;;;15.40;7.15;;;;;;;-2.33;100.00;100437.09;5081707;28;20477;-55
2024/01/28 03:09:29;;;;;;;16.27;6.97;;;;;;;-2.44;100.00;100435.00;5079992;28;20039;-56
2024/01/28 03:11:55;;;;;;;20.83;7.03;;;;;;;-2.37;100.00;100444.34;5085497;28;20025;-55
2024/01/28 03:14:21;;;;;;;13.90;6.50;;;;;;;-2.43;100.00;100429.63;5082770;28;20104;-56
2024/01/28 03:16:46;;;;;;;15.30;6.65;;;;;;;-2.47;100.00;100428.06;5081558;28;20038;-59
2024/01/28 03:19:12;;;;;;;14.23;6.88;;;;;;;-2.56;100.00;100427.72;5086502;28;20055;-59
2024/01/28 03:21:37;;;;;;;18.20;6.80;;;;;;;-2.65;100.00;100426.38;5081399;28;20112;-59
2024/01/28 03:24:03;;;;;;;10.98;5.25;;;;;;;-2.67;100.00;100430.94;5089628;28;20187;-59
2024/01/28 03:26:29;;;;;;;12.20;5.20;;;;;;;-2.68;100.00;100429.19;5079870;28;20032;-66
2024/01/28 03:28:56;;;;;;;12.82;5.65;;;;;;;-2.71;100.00;100426.72;5082882;28;20028;-58
2024/01/28 03:31:21;;;;;;;14.35;5.75;;;;;;;-2.74;100.00;100413.63;5079316;28;20039;-59
2024/01/28 03:33:47;;;;;;;14.75;5.43;;;;;;;-2.76;100.00;100420.78;5084209;28;20029;-59
2024/01/28 03:36:12;;;;;;;13.43;5.13;;;;;;;-2.74;100.00;100419.78;5077973;28;20050;-59
2024/01/28 03:38:40;;;;;;;9.95;4.57;;;;;;;-2.85;100.00;100415.97;5079791;28;20056;-59
2024/01/28 03:41:05;;;;;;;11.70;4.72;;;;;;;-2.85;100.00;100402.75;5077995;28;20028;-59
2024/01/28 03:43:31;;;;;;;10.23;5.45;;;;;;;-2.78;100.00;100417.34;5073940;28;20356;-59
2024/01/28 03:45:56;;;;;;;11.75;5.22;;;;;;;-2.75;100.00;100414.53;5075433;28;20129;-59
2024/01/28 03:48:21;;;;;;;12.85;5.00;;;;;;;-2.81;100.00;100417.53;5077244;28;20055;-59
2024/01/28 03:50:47;;;;;;;9.02;4.65;;;;;;;-2.81;100.00;100414.88;5080898;28;20047;-59
2024/01/28 03:53:12;;;;;;;11.82;4.90;;;;;;;-2.80;100.00;100420.09;5074615;28;20024;-58
2024/01/28 03:55:38;;;;;;;11.35;4.82;;;;;;;-2.73;100.00;100417.97;5083307;28;20024;-59
2024/01/28 03:58:03;;;;;;;17.27;5.05;;;;;;;-2.69;100.00;100422.19;5074736;28;20032;-55
2024/01/28 04:00:29;;;;;;;10.52;4.63;;;;;;;-2.64;100.00;100420.16;5079470;28;20034;-55
2024/01/28 04:02:56;;;;;;;16.60;5.18;;;;;;;-2.69;100.00;100438.09;5077292;28;20352;-55
2024/01/28 04:05:25;;;;;;;11.52;4.75;;;;;;;-2.71;100.00;100435.50;5061337;28;20090;-56
2024/01/28 04:07:50;;;;;;;8.85;4.72;;;;;;;-2.75;100.00;100436.63;5079196;28;20059;-56
2024/01/28 04:10:16;;;;;;;12.07;4.90;;;;;;;-2.77;100.00;100438.47;5071887;28;20083;-55
2024/01/28 04:12:41;;;;;;;9.95;4.22;;;;;;;-2.85;100.00;100431.88;5080360;28;20475;-60
2024/01/28 04:15:07;;;;;;;14.23;5.13;;;;;;;-2.85;100.00;100430.06;5079915;28;20402;-55
2024/01/28 04:17:33;;;;;;;16.38;5.47;;;;;;;-2.89;100.00;100424.06;5075051;28;20388;-56
2024/01/28 04:19:58;;;;;;;13.40;5.25;;;;;;;-2.81;100.00;100428.97;5077110;28;20116;-55
2024/01/28 04:22:24;;;;;;;13.77;4.80;;;;;;;-2.76;100.00;100424.28;5077587;28;20028;-55
2024/01/28 04:24:49;;;;;;;16.13;6.63;;;;;;;-2.78;100.00;100427.94;5074831;28;20047;-55
2024/01/28 04:27:15;;;;;;;13.20;5.82;;;;;;;-2.77;100.00;100432.34;5073666;28;20032;-55
2024/01/28 04:29:43;;;;;;;20.77;6.97;;;;;;;-2.85;100.00;100426.56;5081729;28;20070;-55
2024/01/28 04:32:14;;;;;;;18.90;5.63;;;;;;;-2.96;100.00;100420.03;5077344;28;20455;-55
2024/01/28 04:34:40;;;;;;;10.25;5.55;;;;;;;-2.95;100.00;100427.03;5080696;28;20025;-60
2024/01/28 04:37:06;;;;;;;12.10;5.72;;;;;;;-2.97;100.00;100428.88;5072943;28;20088;-55
2024/01/28 04:39:32;;;;;;;17.15;4.65;;;;;;;-3.04;100.00;100416.88;5086833;28;20067;-56
2024/01/28 04:41:57;;;;;;;12.30;5.03;;;;;;;-3.05;100.00;100431.06;5077376;28;20031;-57
2024/01/28 04:44:23;;;;;;;15.63;5.28;;;;;;;-3.04;100.00;100421.31;5082846;28;20024;-55
2024/01/28 04:46:48;;;;;;;13.82;5.70;;;;;;;-2.92;100.00;100421.56;5070908;28;20726;-56
2024/01/28 04:49:14;;;;;;;11.63;6.07;;;;;;;-2.97;100.00;100423.59;5078456;28;20032;-55
2024/01/28 04:51:41;;;;;;;15.90;5.15;;;;;;;-3.02;100.00;100422.97;5077672;28;20032;-55
2024/01/28 04:54:06;;;;;;;10.68;5.82;;;;;;;-2.89;100.00;100421.41;5072035;28;20028;-58
2024/01/28 04:56:38;;;;;;;15.07;6.00;;;;;;;-2.87;100.00;100426.63;5078477;28;20600;-59
2024/01/28 04:59:04;;;;;;;12.02;5.55;;;;;;;-2.95;100.00;100423.53;5079223;28;20055;-59
2024/01/28 05:01:35;;;;;;;11.90;5.90;;;;;;;-3.05;100.00;100425.78;5076357;28;20056;-58
2024/01/28 05:04:01;;;;;;;14.27;5.97;;;;;;;-3.08;100.00;100415.34;5072953;28;20107;-58
2024/01/28 05:06:35;;;;;;;16.30;5.93;;;;;;;-2.98;100.00;100419.25;5059882;28;20123;-62
2024/01/28 05:09:03;;;;;;;12.43;6.20;;;;;;;-3.10;100.00;100412.75;5074289;28;20070;-59
2024/01/28 05:11:32;;;;;;;17.77;5.93;;;;;;;-3.15;100.00;100413.94;5083118;28;20032;-59
2024/01/28 05:13:58;;;;;;;14.75;5.25;;;;;;;-3.29;100.00;100408.47;5073559;28;20044;-58
2024/01/28 05:16:25;;;;;;;15.02;5.43;;;;;;;-3.33;100.00;100420.97;5074999;28;20496;-59
2024/01/28 05:18:51;;;;;;;13.10;5.47;;;;;;;-3.40;100.00;100420.44;5083216;28;20016;-67
2024/01/28 05:21:18;;;;;;;14.52;5.93;;;;;;;-3.43;100.00;100417.94;5083349;28;20036;-58
2024/01/28 05:23:45;;;;;;;12.88;5.20;;;;;;;-3.46;100.00;100425.16;5077458;28;20024;-55
2024/01/28 05:26:13;;;;;;;16.98;5.65;;;;;;;-3.41;100.00;100431.94;5077113;28;20036;-55
2024/01/28 05:28:39;;;;;;;16.55;5.18;;;;;;;-3.33;100.00;100423.63;5083652;28;20039;-56
2024/01/28 05:31:04;;;;;;;13.20;5.53;;;;;;;-3.48;100.00;100409.38;5077453;28;20024;-56
2024/01/28 05:33:33;;;;;;;13.00;5.25;;;;;;;-3.39;100.00;100422.16;5082806;28;20051;-57
2024/01/28 05:36:00;;;;;;;;;;;;;;;-3.49;100.00;100422.66;5077159;28;20111;-56
2024/01/28 05:38:30;;;;;;;8.57;4.47;;;;;;;-3.49;100.00;100420.03;5084775;28;19999;-56
2024/01/28 05:40:56;;;;;;;11.25;5.35;;;;;;;-3.32;100.00;100431.50;5075821;28;20481;-58
2024/01/28 05:43:22;;;;;;;11.80;5.25;;;;;;;-3.28;100.00;100418.97;5072649;28;20024;-55
2024/01/28 05:45:47;;;;;;;16.25;5.65;;;;;;;-3.37;100.00;100428.22;5077539;28;20028;-55
2024/01/28 05:48:13;;;;;;;15.65;5.45;;;;;;;-3.33;100.00;100426.28;5077511;28;20020;-55
2024/01/28 05:50:38;;;;;;;10.00;5.25;;;;;;;-3.33;100.00;100426.28;5073511;28;20036;-55
2024/01/28 05:53:04;;;;;;;12.90;5.47;;;;;;;-3.32;100.00;100423.56;5060240;28;20059;-56
2024/01/28 05:55:30;;;;;;;16.02;5.28;;;;;;;-3.46;100.00;100415.44;5080805;28;20379;-55
2024/01/28 05:57:55;;;;;;;11.52;5.45;;;;;;;-3.44;100.00;100423.31;5073427;28;20028;-55
2024/01/28 06:00:21;;;;;;;13.40;5.30;;;;;;;-3.41;100.00;100424.00;5081038;28;20383;-55
2024/01/28 06:02:46;;;;;;;12.93;5.35;;;;;;;-3.53;100.00;100398.16;5076765;28;20020;-58
2024/01/28 06:05:11;;;;;;;13.88;7.00;;;;;;;-3.55;100.00;100408.81;5075969;28;20472;-59
2024/01/28 06:07:37;;;;;;;14.07;6.35;;;;;;;-3.33;100.00;100419.22;5071736;28;20028;-59
2024/01/28 06:10:03;;;;;;;14.90;6.53;;;;;;;-3.28;100.00;100424.25;5076531;28;20429;-58
2024/01/28 06:12:28;;;;;;;19.85;6.65;;;;;;;-3.44;100.00;100410.06;5078918;28;20029;-64
2024/01/28 06:14:53;;;;;;;16.13;6.13;;;;;;;-3.44;100.00;100418.88;5081325;28;20024;-65
2024/01/28 06:17:19;;;;;;;16.60;5.68;;;;;;;-3.54;100.00;100414.94;5086013;28;20078;-59
2024/01/28 06:19:44;;;;;;;15.13;5.97;;;;;;;-3.66;100.00;100421.69;5081897;28;20028;-62
2024/01/28 06:22:16;;;;;;;13.30;5.88;;;;;;;-3.68;100.00;100422.72;5083934;28;20467;-58
2024/01/28 06:24:42;;;;;;;16.35;6.07;;;;;;;-3.74;100.00;100421.22;5073376;28;20467;-59
2024/01/28 06:27:09;;;;;;;16.13;6.35;;;;;;;-3.69;100.00;100415.69;5081085;28;20031;-55
2024/01/28 06:29:35;;;;;;;14.02;6.93;;;;;;;-3.63;100.00;100412.75;5085554;28;20035;-55
2024/01/28 06:32:00;;;;;;;12.38;5.95;;;;;;;-3.58;100.00;100418.69;5074652;28;20021;-55
2024/01/28 06:34:25;;;;;;;12.75;6.45;;;;;;;-3.56;100.00;100425.63;5083907;28;20074;-55
2024/01/28 06:36:51;;;;;;;18.27;7.40;;;;;;;-3.49;100.00;100431.47;5083662;28;20028;-55
2024/01/28 06:39:16;;;;;;;15.48;6.95;;;;;;;-3.50;100.00;100432.41;5089440;28;20028;-58
2024/01/28 06:41:43;;;;;;;16.58;6.63;;;;;;;-3.49;100.00;100422.66;5073632;28;20048;-58
2024/01/28 06:44:09;;;;;;;18.23;6.80;;;;;;;-3.46;100.00;100425.16;5077821;28;20024;-59
2024/01/28 06:46:34;;;;;;;15.45;6.15;;;;;;;-3.55;100.00;100415.91;5075401;28;20029;-58
2024/01/28 06:49:00;;;;;;;13.10;5.90;;;;;;;-3.55;100.00;100426.47;5080319;28;20472;-59
2024/01/28 06:51:25;;;;;;;13.32;5.03;;;;;;;-3.53;100.00;100416.69;5091257;28;20055;-59
2024/01/28 06:53:52;;;;;;;14.10;5.50;;;;;;;-3.49;100.00;100415.59;5073951;28;20024;-59
2024/01/28 06:56:17;;;;;;;14.52;5.55;;;;;;;-3.39;100.00;100424.78;5070311;28;20039;-58
2024/01/28 06:58:43;;;;;;;21.88;6.45;;;;;;;-3.32;100.00;100431.50;5073280;28;20032;-58
2024/01/28 07:01:11;;;;;;;10.32;5.63;;;;;;;-3.26;100.00;100435.63;5079237;28;20495;-58
2024/01/28 07:03:37;;;;;;;32.53;6.90;;;;;;;-3.28;100.00;100431.34;5073296;28;20069;-58
2024/01/28 07:06:03;;;;;;;13.90;6.70;;;;;;;-3.29;100.00;100442.88;5054584;28;20026;-58
2024/01/28 07:08:28;;;;;;;15.80;7.22;;;;;;;-3.42;100.00;100421.44;5082096;28;20161;-59
2024/01/28 07:10:54;;;;;;;17.27;8.07;;;;;;;-3.25;100.00;100433.84;5073656;28;20174;-58
2024/01/28 07:13:19;;;;;;;21.23;8.55;;;;;;;-3.19;100.00;100434.41;5082116;28;20067;-58
2024/01/28 07:15:45;;;;;;;22.52;7.13;;;;;;;-3.12;100.00;100425.25;5072228;28;20043;-60
2024/01/28 07:18:11;;;;;;;14.68;6.35;;;;;;;-3.04;100.00;100422.19;5073646;28;20031;-60
2024/01/28 07:20:36;;;;;;;13.40;5.60;;;;;;;-3.00;100.00;100423.75;5080264;28;20392;-60
2024/01/28 07:23:02;;;;;;;12.32;5.80;;;;;;;-3.05;100.00;100422.28;5083098;28;20097;-60
2024/01/28 07:25:27;;;;;;;14.93;5.30;;;;;;;-2.88;100.00;100419.66;5079840;28;20028;-60
2024/01/28 07:27:52;;;;;;;13.25;5.95;;;;;;;-2.73;100.00;100421.47;5074043;28;20033;-60
2024/01/28 07:30:18;;;;;;;12.32;5.47;;;;;;;-2.55;100.00;100421.47;5080329;28;20479;-60
2024/01/28 07:32:43;;;;;;;17.92;8.80;;;;;;;-2.51;100.00;100423.88;5077441;28;20531;-60
2024/01/28 07:35:09;;;;;;;13.40;6.63;;;;;;;-2.50;100.00;100420.28;5073994;28;20031;-55
2024/01/28 07:37:35;;;;;;;10.88;5.93;;;;;;;-2.26;100.00;100415.47;5080312;28;20029;-55
2024/01/28 07:40:00;;;;;;;13.57;6.35;;;;;;;-1.46;100.00;100415.56;5083105;28;20024;-55
2024/01/28 07:42:26;;;;;;;15.73;6.85;;;;;;;-0.63;100.00;100410.69;5076792;28;20030;-55
2024/01/28 07:44:52;;;;;;;17.50;7.00;;;;;;;0.15;100.00;100400.53;5071575;28;20055;-55
2024/01/28 07:47:17;;;;;;;13.70;6.95;;;;;;;0.41;100.00;100366.91;5098276;22;20075;-75
2024/01/28 07:49:42;;;;;;;19.30;8.20;;;;;;;1.60;100.00;100365.97;5081367;28;20227;-77
2024/01/28 07:52:08;;;;;;;16.30;7.18;;;;;;;2.52;100.00;100374.53;5082203;28;20032;-76
2024/01/28 07:54:33;;;;;;;15.05;6.65;;;;;;;3.97;100.00;100358.94;5052099;28;20085;-76
2024/01/28 07:56:59;;;;;;;12.25;6.35;;;;;;;5.79;100.00;100350.81;5079483;28;20335;-76
2024/01/28 07:59:24;;;;;;;17.77;7.40;;;;;;;5.44;100.00;100355.59;5057471;28;20044;-81
2024/01/28 08:01:49;;;;;;;16.20;6.88;;;;;;;5.93;100.00;100350.47;5066142;28;20084;-82
2024/01/28 08:04:15;;;;;;;23.27;10.68;;;;;;;5.47;100.00;100355.31;5069920;28;20044;-83
2024/01/28 08:06:40;;;;;;;24.25;12.80;;;;;;;4.73;100.00;100333.06;5062606;28;20088;-83
2024/01/28 08:09:05;;;;;;;19.25;10.88;;;;;;;5.53;100.00;100363.81;5054283;28;20045;-73
2024/01/28 08:11:30;;;;;;;14.60;8.68;;;;;;;7.05;100.00;100351.09;5077196;28;20038;-75
2024/01/28 08:13:56;;;;;;;12.23;7.38;;;;;;;9.05;91.22;100348.78;5045894;28;20079;-74
2024/01/28 08:16:21;;;;;;;15.50;7.18;;;;;;;9.11;81.97;100355.41;5059573;28;20116;-75
2024/01/28 08:18:47;;;;;;;17.05;8.35;;;;;;;9.68;76.09;100326.09;5053276;28;20024;-74
2024/01/28 08:21:12;;;;;;;17.27;7.55;;;;;;;10.11;72.46;100345.91;5072009;28;20088;-73
2024/01/28 08:23:38;;;;;;;11.48;6.38;;;;;;;10.21;70.40;100346.63;5075460;28;20020;-73
2024/01/28 08:26:03;;;;;;;11.20;6.40;;;;;;;11.03;67.23;100333.31;5053542;28;20228;-73
2024/01/28 08:28:29;;;;;;;11.52;6.70;;;;;;;11.45;64.51;100320.56;5054844;28;20049;-73
2024/01/28 08:30:54;;;;;;;11.73;7.75;;;;;;;11.66;63.12;100328.16;5056116;28;20086;-73
2024/01/28 08:33:19;;;;;;;15.88;9.82;;;;;;;11.46;64.76;100317.72;5056967;28;20024;-77
2024/01/28 08:35:44;;;;;;;16.75;9.93;;;;;;;11.29;64.61;100322.31;5058047;28;20027;-80
2024/01/28 08:38:10;;;;;;;13.65;9.50;;;;;;;12.64;61.65;100333.22;5073981;28;20091;-80
2024/01/28 08:40:36;;;;;;;17.48;9.13;;;;;;;13.15;59.67;100326.22;5054734;28;20028;-79
2024/01/28 08:43:04;;;;;;;14.13;8.85;;;;;;;12.49;58.51;100308.69;5054594;28;20017;-80
2024/01/28 08:45:29;;;;;;;14.05;9.13;;;;;;;12.52;58.99;100337.34;5054014;28;20031;-79
2024/01/28 08:47:54;;;;;;;29.65;16.50;;;;;;;12.42;59.89;100307.75;5040976;28;20025;-80
2024/01/28 08:50:21;;;;;;;28.50;15.57;;;;;;;12.65;58.67;100324.03;5056947;28;20049;-81
2024/01/28 08:52:46;;;;;;;23.00;13.52;;;;;;;14.10;56.50;100318.50;5057292;28;20021;-80
2024/01/28 08:55:12;;;;;;;24.00;12.95;;;;;;;13.65;55.31;100302.16;5054009;28;20013;-79
2024/01/28 08:57:37;;;;;;;12.98;7.75;;;;;;;13.80;55.50;100308.44;5051354;28;20096;-78
2024/01/28 09:00:05;;;;;;;9.13;5.88;;;;;;;14.44;56.44;100317.88;5058064;28;20216;-78
2024/01/28 09:02:35;;;;;;;9.82;4.65;;;;;;;15.11;55.29;100327.59;5056488;28;20304;-78
2024/01/28 09:05:01;;;;;;;5.93;4.18;;;;;;;15.16;53.12;100307.94;5067616;28;20025;-78
2024/01/28 09:07:27;;;;;;;6.88;4.15;;;;;;;16.09;51.21;100311.34;5058316;28;20021;-78
2024/01/28 09:09:52;;;;;;;9.38;3.65;;;;;;;15.72;52.68;100313.44;5059892;28;20142;-77
2024/01/28 09:12:18;;;;;;;6.82;3.70;;;;;;;14.93;53.99;100319.03;5063879;28;20036;-79
2024/01/28 09:14:43;;;;;;;6.05;3.50;;;;;;;16.38;51.59;100327.44;5061521;28;20092;-79
2024/01/28 09:17:08;;;;;;;7.45;3.58;;;;;;;16.54;52.02;100293.44;5056119;28;20051;-79
2024/01/28 09:19:34;;;;;;;7.18;3.50;;;;;;;16.46;50.70;100326.44;5054902;28;20035;-73
2024/01/28 09:21:59;;;;;;;6.75;3.30;;;;;;;17.13;50.93;100321.97;5073757;28;20081;-78
2024/01/28 09:24:24;;;;;;;6.07;2.90;;;;;;;18.07;48.29;100304.41;5056056;28;20271;-79
2024/01/28 09:26:49;;;;;;;7.18;2.90;;;;;;;18.09;47.35;100301.47;5057909;28;20099;-80
2024/01/28 09:29:15;;;;;;;5.40;3.10;;;;;;;18.05;47.93;100319.38;5057771;28;20051;-81
2024/01/28 09:31:44;;;;;;;6.30;3.20;;;;;;;18.00;48.59;100325.53;5053850;28;20021;-74
2024/01/28 09:34:10;;;;;;;6.70;3.40;;;;;;;17.58;48.20;100319.47;5056819;28;20300;-73
2024/01/28 09:36:35;;;;;;;5.43;3.17;;;;;;;19.09;46.88;100322.91;5047104;28;20067;-73
2024/01/28 09:39:00;;;;;;;5.70;2.67;;;;;;;18.38;46.04;100332.97;5067161;28;20023;-73
2024/01/28 09:41:35;;;;;;;5.05;2.83;;;;;;;17.70;46.45;100334.16;5046412;28;20045;-73
2024/01/28 09:44:00;;;;;;;4.07;2.80;;;;;;;18.22;46.26;100338.94;5075410;28;20024;-74
2024/01/28 09:46:25;;;;;;;5.13;2.80;;;;;;;19.00;45.47;100317.69;5075862;28;20242;-73
2024/01/28 09:48:50;;;;;;;7.10;3.40;;;;;;;19.93;45.37;100322.38;5052041;28;20070;-72
2024/01/28 09:51:20;;;;;;;5.07;3.15;;;;;;;18.99;46.13;100321.50;5075356;28;20024;-73
2024/01/28 09:53:45;;;;;;;5.35;2.75;;;;;;;19.11;46.69;100332.59;5054706;28;20031;-73
2024/01/28 09:56:13;;;;;;;4.28;2.67;;;;;;;19.35;46.07;100325.44;5053635;28;20024;-72
2024/01/28 09:58:40;;;;;;;5.40;3.00;;;;;;;19.15;46.32;100330.25;5051638;28;20060;-72
2024/01/28 10:01:06;;;;;;;4.57;2.90;;;;;;;18.87;47.11;100331.50;5046045;28;20105;-72
2024/01/28 10:03:34;;;;;;;5.88;2.95;;;;;;;20.84;44.52;100314.31;5048090;28;20018;-67
2024/01/28 10:05:59;;;;;;;5.85;3.03;;;;;;;20.02;44.62;100322.13;5069592;28;20032;-67
2024/01/28 10:08:26;;;;;;;4.38;2.72;;;;;;;20.17;45.16;100311.56;5069948;28;20029;-69
2024/01/28 10:10:54;;;;;;;4.10;3.13;;;;;;;20.31;44.64;100306.75;5063464;28;20021;-74
2024/01/28 10:13:20;;;;;;;4.60;2.42;;;;;;;21.50;43.45;100306.94;5071590;28;20342;-69
2024/01/28 10:15:56;;;;;;;4.95;2.72;;;;;;;21.08;43.65;100308.88;5070725;28;20044;-69
2024/01/28 10:18:23;;;;;;;4.82;2.78;;;;;;;21.33;43.30;100306.78;5068823;28;20327;-69
2024/01/28 10:20:48;;;;;;;4.72;2.58;;;;;;;21.41;43.02;100311.13;5073133;28;20033;-68
2024/01/28 10:23:14;;;;;;;4.45;2.25;;;;;;;21.91;42.57;100304.31;5063654;28;20336;-80
2024/01/28 10:25:40;;;;;;;4.82;2.70;;;;;;;22.77;40.82;100302.53;5069902;28;20036;-79
2024/01/28 10:28:06;;;;;;;3.45;2.20;;;;;;;24.14;40.35;100300.38;5069530;28;20091;-70
2024/01/28 10:30:33;;;;;;;3.63;2.17;;;;;;;24.66;38.06;100297.16;5080085;28;20025;-68
2024/01/28 10:32:58;;;;;;;5.00;2.22;;;;;;;23.87;38.77;100288.38;5078697;28;20025;-69
2024/01/28 10:35:25;;;;;;;7.03;2.25;;;;;;;24.47;37.81;100298.56;5076472;28;20031;-69
2024/01/28 10:37:53;;;;;;;3.53;2.17;;;;;;;24.79;37.09;100295.09;5065375;28;20021;-69
2024/01/28 10:40:19;;;;;;;4.22;2.28;;;;;;;24.27;35.99;100299.16;5069149;28;20048;-67
2024/01/28 10:42:47;;;;;;;3.90;2.28;;;;;;;24.83;35.40;100302.56;5081405;28;20020;-70
2024/01/28 10:45:17;;;;;;;3.25;2.40;;;;;;;24.41;34.53;100283.00;5074289;28;20023;-69
2024/01/28 10:47:52;;;;;;;9.02;5.68;;;;;;;24.89;34.77;100295.19;5069818;28;20025;-69
2024/01/28 10:50:18;;;;;;;9.10;5.82;;;;;;;25.35;33.88;100295.63;5065559;28;20028;-71
2024/01/28 10:52:46;;;;;;;5.15;3.50;;;;;;;24.83;34.21;100290.69;5071923;28;20037;-70
2024/01/28 10:55:12;;;;;;;5.50;2.90;;;;;;;25.79;33.77;100270.44;5073017;28;20031;-71
2024/01/28 10:57:39;;;;;;;4.75;2.35;;;;;;;23.79;34.45;100290.50;5071724;28;20387;-71
2024/01/28 11:00:06;;;;;;;3.50;2.40;;;;;;;25.21;34.31;100275.84;5072722;28;20051;-71
2024/01/28 11:02:34;;;;;;;4.90;2.53;;;;;;;25.08;34.52;100281.78;5078398;28;20032;-70
2024/01/28 11:05:00;;;;;;;;;;;;;;;25.54;33.65;100271.09;5074999;28;20024;-77
2024/01/28 11:07:26;;;;;;;3.38;2.45;;;;;;;23.57;35.76;100271.06;5076318;28;20226;-67
2024/01/28 11:09:52;;;;;;;4.20;2.50;;;;;;;23.32;35.75;100273.44;5070565;28;20052;-67
2024/01/28 11:12:19;;;;;;;4.00;2.55;;;;;;;24.37;35.20;100260.56;5075375;28;20036;-67